createdAt,value
2022-08-09T00:00:12.341Z,1023.6
2022-08-09T00:01:15.380Z,1023.6
2022-08-09T00:02:12.156Z,1023.6
2022-08-09T00:04:00.567Z,1023.6
2022-08-09T00:04:34.306Z,1023.6
2022-08-09T00:06:18.224Z,1023.6
2022-08-09T00:07:12.112Z,1023.5
2022-08-09T00:08:12.893Z,1023.6
2022-08-09T00:09:12.104Z,1023.6
2022-08-09T00:10:18.202Z,1023.6
2022-08-09T00:11:24.400Z,1023.5
2022-08-09T00:12:15.583Z,1023.6
2022-08-09T00:13:17.213Z,1023.5
2022-08-09T00:14:12.101Z,1023.6
2022-08-09T00:15:13.900Z,1023.6
2022-08-09T00:16:12.894Z,1023.6
2022-08-09T00:18:05.138Z,1023.6
2022-08-09T00:18:12.595Z,1023.6
2022-08-09T00:19:12.106Z,1023.6
2022-08-09T00:20:12.244Z,1023.6
2022-08-09T00:21:12.105Z,1023.6
2022-08-09T00:22:12.103Z,1023.6
2022-08-09T00:24:12.106Z,1023.7
2022-08-09T00:25:12.808Z,1023.7
2022-08-09T00:26:12.119Z,1023.7
2022-08-09T00:27:12.110Z,1023.6
2022-08-09T00:28:12.108Z,1023.7
2022-08-09T00:29:39.323Z,1023.6
2022-08-09T00:30:24.543Z,1023.6
2022-08-09T00:31:55.799Z,1023.6
2022-08-09T00:32:12.729Z,1023.7
2022-08-09T00:33:12.105Z,1023.6
2022-08-09T00:34:12.105Z,1023.6
2022-08-09T00:35:12.099Z,1023.6
2022-08-09T00:36:12.114Z,1023.6
2022-08-09T00:37:12.126Z,1023.7
2022-08-09T00:38:12.108Z,1023.7
2022-08-09T00:40:09.676Z,1023.6
2022-08-09T00:40:16.943Z,1023.6
2022-08-09T00:41:12.138Z,1023.6
2022-08-09T00:44:14.339Z,1023.6
2022-08-09T00:44:14.660Z,1023.6
2022-08-09T00:44:26.436Z,1023.5
2022-08-09T00:45:15.684Z,1023.6
2022-08-09T00:46:28.429Z,1023.6
2022-08-09T00:47:15.364Z,1023.6
2022-08-09T00:48:15.372Z,1023.6
2022-08-09T00:49:33.973Z,1023.6
2022-08-09T00:50:14.652Z,1023.5
2022-08-09T00:51:12.948Z,1023.6
2022-08-09T00:52:17.312Z,1023.5
2022-08-09T00:53:12.116Z,1023.5
2022-08-09T00:54:12.123Z,1023.5
2022-08-09T00:55:33.159Z,1023.5
2022-08-09T00:56:12.133Z,1023.5
2022-08-09T00:57:12.126Z,1023.5
2022-08-09T00:58:14.539Z,1023.5
2022-08-09T00:59:12.127Z,1023.5
2022-08-09T01:00:21.296Z,1023.6
2022-08-09T01:01:16.037Z,1023.6
2022-08-09T01:02:12.142Z,1023.6
2022-08-09T01:03:12.125Z,1023.6
2022-08-09T01:04:12.125Z,1023.6
2022-08-09T01:05:14.126Z,1023.6
2022-08-09T01:06:18.114Z,1023.6
2022-08-09T01:07:13.904Z,1023.6
2022-08-09T01:08:12.136Z,1023.6
2022-08-09T01:09:12.129Z,1023.7
2022-08-09T01:10:12.134Z,1023.6
2022-08-09T01:11:15.050Z,1023.6
2022-08-09T01:12:12.790Z,1023.6
2022-08-09T01:13:12.131Z,1023.6
2022-08-09T01:14:12.134Z,1023.6
2022-08-09T01:15:17.661Z,1023.6
2022-08-09T01:16:12.833Z,1023.6
2022-08-09T01:17:12.137Z,1023.6
2022-08-09T01:18:14.216Z,1023.5
2022-08-09T01:19:17.014Z,1023.6
2022-08-09T01:20:12.134Z,1023.6
2022-08-09T01:21:12.140Z,1023.6
2022-08-09T01:22:12.417Z,1023.6
2022-08-09T01:23:12.431Z,1023.6
2022-08-09T01:24:12.173Z,1023.7
2022-08-09T01:25:12.421Z,1023.6
2022-08-09T01:26:12.143Z,1023.6
2022-08-09T01:27:12.139Z,1023.7
2022-08-09T01:28:12.144Z,1023.6
2022-08-09T01:29:12.139Z,1023.7
2022-08-09T01:30:28.688Z,1023.7
2022-08-09T01:31:12.150Z,1023.7
2022-08-09T01:32:29.647Z,1023.8
2022-08-09T01:33:12.140Z,1023.8
2022-08-09T01:34:12.146Z,1023.7
2022-08-09T01:35:37.710Z,1023.7
2022-08-09T01:36:12.145Z,1023.8
2022-08-09T01:38:14.920Z,1023.7
2022-08-09T01:39:12.223Z,1023.7
2022-08-09T01:40:12.146Z,1023.7
2022-08-09T01:41:12.142Z,1023.7
2022-08-09T01:42:12.147Z,1023.7
2022-08-09T01:43:12.150Z,1023.7
2022-08-09T01:44:12.155Z,1023.7
2022-08-09T01:45:12.148Z,1023.7
2022-08-09T01:46:12.157Z,1023.7
2022-08-09T01:47:12.147Z,1023.7
2022-08-09T01:48:12.153Z,1023.7
2022-08-09T01:50:12.154Z,1023.7
2022-08-09T01:51:12.162Z,1023.7
2022-08-09T01:52:12.153Z,1023.7
2022-08-09T01:53:19.664Z,1023.7
2022-08-09T01:54:12.165Z,1023.7
2022-08-09T01:55:12.156Z,1023.7
2022-08-09T01:56:12.153Z,1023.7
2022-08-09T01:57:12.164Z,1023.7
2022-08-09T01:58:12.153Z,1023.6
2022-08-09T01:59:16.060Z,1023.7
2022-08-09T02:00:35.157Z,1023.6
2022-08-09T02:01:18.315Z,1023.7
2022-08-09T02:02:12.212Z,1023.6
2022-08-09T02:03:13.882Z,1023.6
2022-08-09T02:04:12.159Z,1023.6
2022-08-09T02:05:15.777Z,1023.7
2022-08-09T02:06:12.162Z,1023.6
2022-08-09T02:07:15.303Z,1023.7
2022-08-09T02:08:39.538Z,1023.7
2022-08-09T02:09:12.172Z,1023.7
2022-08-09T02:10:12.167Z,1023.7
2022-08-09T02:11:17.384Z,1023.7
2022-08-09T02:12:13.400Z,1023.7
2022-08-09T02:13:12.162Z,1023.7
2022-08-09T02:14:15.745Z,1023.7
2022-08-09T02:15:16.918Z,1023.7
2022-08-09T02:16:12.372Z,1023.7
2022-08-09T02:17:15.213Z,1023.7
2022-08-09T02:18:12.171Z,1023.7
2022-08-09T02:19:12.163Z,1023.7
2022-08-09T02:20:12.165Z,1023.6
2022-08-09T02:21:19.766Z,1023.7
2022-08-09T02:22:12.162Z,1023.7
2022-08-09T02:23:12.166Z,1023.6
2022-08-09T02:24:12.167Z,1023.6
2022-08-09T02:25:15.058Z,1023.6
2022-08-09T02:26:25.262Z,1023.6
2022-08-09T02:27:12.175Z,1023.6
2022-08-09T02:28:12.181Z,1023.6
2022-08-09T02:29:12.173Z,1023.6
2022-08-09T02:30:12.167Z,1023.6
2022-08-09T02:31:12.171Z,1023.6
2022-08-09T02:32:12.174Z,1023.6
2022-08-09T02:33:14.581Z,1023.6
2022-08-09T02:34:13.800Z,1023.6
2022-08-09T02:35:17.893Z,1023.6
2022-08-09T02:36:12.184Z,1023.7
2022-08-09T02:37:12.369Z,1023.6
2022-08-09T02:38:12.188Z,1023.6
2022-08-09T02:39:14.551Z,1023.6
2022-08-09T02:40:12.198Z,1023.6
2022-08-09T02:41:12.176Z,1023.6
2022-08-09T02:42:12.196Z,1023.6
2022-08-09T02:43:12.177Z,1023.6
2022-08-09T02:44:22.044Z,1023.6
2022-08-09T02:45:12.174Z,1023.6
2022-08-09T02:46:12.181Z,1023.6
2022-08-09T02:47:12.211Z,1023.6
2022-08-09T02:48:30.442Z,1023.6
2022-08-09T02:49:12.210Z,1023.6
2022-08-09T02:50:12.176Z,1023.6
2022-08-09T02:51:12.180Z,1023.6
2022-08-09T02:52:12.176Z,1023.6
2022-08-09T02:53:25.812Z,1023.6
2022-08-09T02:54:12.332Z,1023.6
2022-08-09T02:55:20.938Z,1023.6
2022-08-09T02:56:12.195Z,1023.6
2022-08-09T02:57:14.017Z,1023.6
2022-08-09T02:59:16.045Z,1023.5
2022-08-09T03:00:25.326Z,1023.5
2022-08-09T03:01:15.159Z,1023.5
2022-08-09T03:02:16.765Z,1023.5
2022-08-09T03:04:16.454Z,1023.5
2022-08-09T03:05:16.677Z,1023.5
2022-08-09T03:06:12.195Z,1023.5
2022-08-09T03:07:14.489Z,1023.5
2022-08-09T03:08:12.191Z,1023.5
2022-08-09T03:09:12.201Z,1023.6
2022-08-09T03:10:12.258Z,1023.5
2022-08-09T03:11:12.193Z,1023.5
2022-08-09T03:13:12.191Z,1023.5
2022-08-09T03:14:12.189Z,1023.5
2022-08-09T03:15:12.193Z,1023.6
2022-08-09T03:16:12.194Z,1023.5
2022-08-09T03:17:20.481Z,1023.6
2022-08-09T03:18:12.189Z,1023.5
2022-08-09T03:19:14.143Z,1023.5
2022-08-09T03:20:12.197Z,1023.6
2022-08-09T03:21:12.203Z,1023.5
2022-08-09T03:22:25.479Z,1023.5
2022-08-09T03:23:15.018Z,1023.5
2022-08-09T03:24:12.225Z,1023.5
2022-08-09T03:25:25.870Z,1023.5
2022-08-09T03:26:12.200Z,1023.5
2022-08-09T03:27:12.192Z,1023.5
2022-08-09T03:28:12.204Z,1023.5
2022-08-09T03:29:22.713Z,1023.5
2022-08-09T03:30:12.196Z,1023.5
2022-08-09T03:31:21.292Z,1023.5
2022-08-09T03:32:12.215Z,1023.6
2022-08-09T03:33:17.548Z,1023.5
2022-08-09T03:34:12.209Z,1023.6
2022-08-09T03:35:15.006Z,1023.6
2022-08-09T03:36:16.396Z,1023.6
2022-08-09T03:37:55.835Z,1023.5
2022-08-09T03:38:28.530Z,1023.5
2022-08-09T03:39:12.220Z,1023.5
2022-08-09T03:40:13.248Z,1023.5
2022-08-09T03:41:15.576Z,1023.5
2022-08-09T03:42:13.042Z,1023.6
2022-08-09T03:43:12.205Z,1023.6
2022-08-09T03:44:12.247Z,1023.6
2022-08-09T03:45:12.216Z,1023.6
2022-08-09T03:46:27.044Z,1023.5
2022-08-09T03:47:12.207Z,1023.6
2022-08-09T03:48:12.239Z,1023.5
2022-08-09T03:49:12.228Z,1023.6
2022-08-09T03:50:12.222Z,1023.6
2022-08-09T03:51:55.814Z,1023.5
2022-08-09T03:52:12.222Z,1023.5
2022-08-09T03:53:12.211Z,1023.6
2022-08-09T03:54:12.208Z,1023.6
2022-08-09T03:55:14.414Z,1023.6
2022-08-09T03:56:12.221Z,1023.6
2022-08-09T03:58:16.307Z,1023.6
2022-08-09T03:59:17.014Z,1023.6
2022-08-09T04:01:12.270Z,1023.6
2022-08-09T04:02:12.224Z,1023.6
2022-08-09T04:04:14.747Z,1023.6
2022-08-09T04:05:14.001Z,1023.6
2022-08-09T04:06:12.283Z,1023.6
2022-08-09T04:07:12.221Z,1023.6
2022-08-09T04:08:12.220Z,1023.7
2022-08-09T04:09:41.645Z,1023.6
2022-08-09T04:10:12.222Z,1023.6
2022-08-09T04:11:12.224Z,1023.6
2022-08-09T04:12:12.265Z,1023.7
2022-08-09T04:13:12.296Z,1023.7
2022-08-09T04:14:53.505Z,1023.6
2022-08-09T04:15:29.585Z,1023.6
2022-08-09T04:16:20.659Z,1023.6
2022-08-09T04:17:12.226Z,1023.7
2022-08-09T04:19:15.794Z,1023.7
2022-08-09T04:20:12.242Z,1023.7
2022-08-09T04:21:12.242Z,1023.7
2022-08-09T04:22:13.123Z,1023.7
2022-08-09T04:23:16.596Z,1023.7
2022-08-09T04:24:12.233Z,1023.8
2022-08-09T04:25:12.227Z,1023.7
2022-08-09T04:26:12.234Z,1023.8
2022-08-09T04:27:12.293Z,1023.8
2022-08-09T04:28:12.469Z,1023.8
2022-08-09T04:29:15.690Z,1023.8
2022-08-09T04:30:12.236Z,1023.8
2022-08-09T04:31:13.055Z,1023.8
2022-08-09T04:32:13.149Z,1023.8
2022-08-09T04:33:12.308Z,1023.8
2022-08-09T04:34:12.240Z,1023.8
2022-08-09T04:35:12.238Z,1023.8
2022-08-09T04:37:12.233Z,1023.8
2022-08-09T04:38:12.247Z,1023.8
2022-08-09T04:39:12.306Z,1023.8
2022-08-09T04:40:12.240Z,1023.8
2022-08-09T04:41:12.237Z,1023.8
2022-08-09T04:43:12.244Z,1023.9
2022-08-09T04:44:12.239Z,1023.9
2022-08-09T04:45:12.237Z,1023.9
2022-08-09T04:46:19.223Z,1023.9
2022-08-09T04:47:12.237Z,1023.9
2022-08-09T04:48:12.238Z,1023.9
2022-08-09T04:49:12.244Z,1023.9
2022-08-09T04:50:12.239Z,1023.9
2022-08-09T04:51:12.240Z,1023.9
2022-08-09T04:52:12.239Z,1024
2022-08-09T04:53:13.607Z,1023.9
2022-08-09T04:54:12.249Z,1024
2022-08-09T04:55:12.350Z,1023.9
2022-08-09T04:56:12.239Z,1023.9
2022-08-09T04:57:12.412Z,1023.9
2022-08-09T04:58:12.238Z,1023.9
2022-08-09T04:59:13.074Z,1024
2022-08-09T05:01:15.997Z,1023.9
2022-08-09T05:02:12.334Z,1023.9
2022-08-09T05:03:30.665Z,1023.9
2022-08-09T05:04:12.331Z,1024
2022-08-09T05:05:12.247Z,1023.9
2022-08-09T05:06:22.120Z,1024
2022-08-09T05:07:18.997Z,1024
2022-08-09T05:08:14.761Z,1024
2022-08-09T05:09:12.411Z,1024
2022-08-09T05:10:12.266Z,1024.1
2022-08-09T05:11:12.255Z,1024.1
2022-08-09T05:12:12.448Z,1024.1
2022-08-09T05:13:12.244Z,1024.1
2022-08-09T05:14:12.255Z,1024.1
2022-08-09T05:15:38.645Z,1024.1
2022-08-09T05:16:12.316Z,1024.1
2022-08-09T05:18:36.908Z,1024.1
2022-08-09T05:18:39.450Z,1024.1
2022-08-09T05:19:12.271Z,1024.1
2022-08-09T05:20:12.251Z,1024.1
2022-08-09T05:21:22.939Z,1024.1
2022-08-09T05:22:33.227Z,1024.1
2022-08-09T05:23:55.733Z,1024.1
2022-08-09T05:24:12.272Z,1024.2
2022-08-09T05:26:22.216Z,1024.1
2022-08-09T05:27:13.467Z,1024.1
2022-08-09T05:28:12.275Z,1024.1
2022-08-09T05:29:17.455Z,1024.1
2022-08-09T05:30:12.270Z,1024.1
2022-08-09T05:31:12.261Z,1024.1
2022-08-09T05:32:12.267Z,1024.1
2022-08-09T05:33:12.266Z,1024.1
2022-08-09T05:34:17.022Z,1024.1
2022-08-09T05:35:12.257Z,1024.1
2022-08-09T05:36:12.263Z,1024.1
2022-08-09T05:37:12.267Z,1024.2
2022-08-09T05:38:12.278Z,1024.1
2022-08-09T05:39:12.338Z,1024.1
2022-08-09T05:40:12.371Z,1024.1
2022-08-09T05:41:12.856Z,1024.2
2022-08-09T05:42:17.742Z,1024.1
2022-08-09T05:43:12.262Z,1024.1
2022-08-09T05:44:12.265Z,1024.1
2022-08-09T05:45:14.295Z,1024.1
2022-08-09T05:46:12.268Z,1024.1
2022-08-09T05:47:12.270Z,1024.1
2022-08-09T05:48:12.273Z,1024.1
2022-08-09T05:49:33.838Z,1024.1
2022-08-09T05:50:30.448Z,1024.1
2022-08-09T05:51:29.844Z,1024.1
2022-08-09T05:52:12.271Z,1024.1
2022-08-09T05:53:31.723Z,1024.1
2022-08-09T05:54:12.278Z,1024.1
2022-08-09T05:55:20.890Z,1024.1
2022-08-09T05:56:12.300Z,1024.1
2022-08-09T05:57:12.776Z,1024
2022-08-09T05:58:12.336Z,1024.1
2022-08-09T05:59:12.271Z,1024.1
2022-08-09T06:00:34.015Z,1024.1
2022-08-09T06:01:16.037Z,1024.1
2022-08-09T06:02:12.278Z,1024.1
2022-08-09T06:03:12.363Z,1024.1
2022-08-09T06:04:12.498Z,1024.1
2022-08-09T06:05:12.306Z,1024.1
2022-08-09T06:06:12.285Z,1024.2
2022-08-09T06:07:21.725Z,1024.2
2022-08-09T06:08:12.277Z,1024.2
2022-08-09T06:09:40.417Z,1024.2
2022-08-09T06:10:15.952Z,1024.2
2022-08-09T06:11:17.481Z,1024.2
2022-08-09T06:12:12.286Z,1024.2
2022-08-09T06:13:18.346Z,1024.2
2022-08-09T06:14:12.348Z,1024.2
2022-08-09T06:15:12.287Z,1024.2
2022-08-09T06:16:12.283Z,1024.2
2022-08-09T06:17:12.318Z,1024.2
2022-08-09T06:18:12.282Z,1024.2
2022-08-09T06:19:12.284Z,1024.2
2022-08-09T06:20:12.291Z,1024.2
2022-08-09T06:21:12.297Z,1024.2
2022-08-09T06:22:15.014Z,1024.2
2022-08-09T06:23:15.679Z,1024.2
2022-08-09T06:24:12.294Z,1024.2
2022-08-09T06:25:16.179Z,1024.2
2022-08-09T06:26:12.287Z,1024.2
2022-08-09T06:27:12.303Z,1024.2
2022-08-09T06:28:12.324Z,1024.2
2022-08-09T06:29:15.026Z,1024.2
2022-08-09T06:30:14.074Z,1024.2
2022-08-09T06:31:12.297Z,1024.2
2022-08-09T06:32:53.162Z,1024.2
2022-08-09T06:33:30.090Z,1024.2
2022-08-09T06:34:12.290Z,1024.2
2022-08-09T06:36:13.721Z,1024.2
2022-08-09T06:37:12.293Z,1024.2
2022-08-09T06:38:12.290Z,1024.2
2022-08-09T06:39:12.518Z,1024.2
2022-08-09T06:40:21.926Z,1024.2
2022-08-09T06:41:18.930Z,1024.2
2022-08-09T06:42:12.308Z,1024.2
2022-08-09T06:43:12.291Z,1024.2
2022-08-09T06:44:12.294Z,1024.3
2022-08-09T06:46:05.083Z,1024.2
2022-08-09T06:46:13.133Z,1024.3
2022-08-09T06:47:12.379Z,1024.2
2022-08-09T06:48:12.306Z,1024.2
2022-08-09T06:49:12.299Z,1024.2
2022-08-09T06:50:14.886Z,1024.2
2022-08-09T06:51:12.359Z,1024.2
2022-08-09T06:52:15.583Z,1024.2
2022-08-09T06:53:12.303Z,1024.2
2022-08-09T06:54:14.792Z,1024.2
2022-08-09T06:55:12.607Z,1024.2
2022-08-09T06:56:12.302Z,1024.2
2022-08-09T06:57:12.297Z,1024.2
2022-08-09T06:58:28.600Z,1024.2
2022-08-09T07:00:51.493Z,1024.2
2022-08-09T07:01:12.370Z,1024.2
2022-08-09T07:02:12.357Z,1024.2
2022-08-09T07:03:12.311Z,1024.2
2022-08-09T07:04:12.308Z,1024.2
2022-08-09T07:05:12.310Z,1024.3
2022-08-09T07:06:12.307Z,1024.2
2022-08-09T07:07:12.325Z,1024.2
2022-08-09T07:08:12.328Z,1024.2
2022-08-09T07:09:55.069Z,1024.2
2022-08-09T07:10:24.080Z,1024.2
2022-08-09T07:11:17.470Z,1024.2
2022-08-09T07:12:17.445Z,1024.2
2022-08-09T07:13:27.227Z,1024.2
2022-08-09T07:14:12.315Z,1024.2
2022-08-09T07:15:54.014Z,1024.3
2022-08-09T07:16:43.461Z,1024.2
2022-08-09T07:17:12.313Z,1024.2
2022-08-09T07:18:14.353Z,1024.2
2022-08-09T07:19:15.388Z,1024.3
2022-08-09T07:20:12.315Z,1024.2
2022-08-09T07:21:12.317Z,1024.3
2022-08-09T07:22:12.305Z,1024.2
2022-08-09T07:23:18.951Z,1024.2
2022-08-09T07:24:12.320Z,1024.2
2022-08-09T07:25:12.313Z,1024.2
2022-08-09T07:26:12.973Z,1024.2
2022-08-09T07:27:28.240Z,1024.3
2022-08-09T07:28:12.318Z,1024.2
2022-08-09T07:29:13.483Z,1024.2
2022-08-09T07:30:12.342Z,1024.2
2022-08-09T07:31:12.314Z,1024.2
2022-08-09T07:32:12.315Z,1024.2
2022-08-09T07:33:16.379Z,1024.2
2022-08-09T07:34:20.423Z,1024.2
2022-08-09T07:35:12.330Z,1024.2
2022-08-09T07:36:12.321Z,1024.2
2022-08-09T07:37:15.919Z,1024.2
2022-08-09T07:38:12.328Z,1024.2
2022-08-09T07:39:12.365Z,1024.2
2022-08-09T07:40:12.866Z,1024.2
2022-08-09T07:41:12.823Z,1024.1
2022-08-09T07:42:12.325Z,1024.2
2022-08-09T07:43:16.622Z,1024.2
2022-08-09T07:44:12.333Z,1024.2
2022-08-09T07:45:22.644Z,1024.2
2022-08-09T07:46:12.328Z,1024.2
2022-08-09T07:47:12.327Z,1024.2
2022-08-09T07:48:25.604Z,1024.2
2022-08-09T07:49:15.397Z,1024.2
2022-08-09T07:50:12.345Z,1024.2
2022-08-09T07:52:05.941Z,1024.2
2022-08-09T07:52:17.812Z,1024.2
2022-08-09T07:53:12.331Z,1024.2
2022-08-09T07:54:12.333Z,1024.2
2022-08-09T07:55:12.340Z,1024.2
2022-08-09T07:56:26.765Z,1024.2
2022-08-09T07:57:12.337Z,1024.2
2022-08-09T07:58:13.233Z,1024.2
2022-08-09T07:59:21.204Z,1024.2
2022-08-09T08:00:12.342Z,1024.2
2022-08-09T08:01:13.682Z,1024.2
2022-08-09T08:02:16.642Z,1024.2
2022-08-09T08:04:12.341Z,1024.2
2022-08-09T08:05:18.576Z,1024.2
2022-08-09T08:06:14.338Z,1024.2
2022-08-09T08:08:06.129Z,1024.3
2022-08-09T08:09:02.585Z,1024.2
2022-08-09T08:09:34.299Z,1024.2
2022-08-09T08:10:12.394Z,1024.3
2022-08-09T08:12:10.819Z,1024.3
2022-08-09T08:13:12.340Z,1024.4
2022-08-09T08:14:12.356Z,1024.4
2022-08-09T08:15:13.899Z,1024.3
2022-08-09T08:16:31.512Z,1024.3
2022-08-09T08:17:24.838Z,1024.4
2022-08-09T08:18:14.484Z,1024.4
2022-08-09T08:19:12.345Z,1024.3
2022-08-09T08:20:13.211Z,1024.3
2022-08-09T08:21:12.347Z,1024.3
2022-08-09T08:22:12.349Z,1024.4
2022-08-09T08:23:17.121Z,1024.4
2022-08-09T08:24:16.581Z,1024.3
2022-08-09T08:25:13.538Z,1024.3
2022-08-09T08:26:12.350Z,1024.3
2022-08-09T08:27:16.899Z,1024.4
2022-08-09T08:28:14.256Z,1024.4
2022-08-09T08:29:12.349Z,1024.3
2022-08-09T08:30:12.432Z,1024.3
2022-08-09T08:31:15.007Z,1024.3
2022-08-09T08:32:12.630Z,1024.3
2022-08-09T08:33:23.821Z,1024.2
2022-08-09T08:34:12.357Z,1024.2
2022-08-09T08:35:12.357Z,1024.3
2022-08-09T08:36:12.364Z,1024.2
2022-08-09T08:37:15.792Z,1024.2
2022-08-09T08:38:12.357Z,1024.2
2022-08-09T08:39:12.390Z,1024.3
2022-08-09T08:40:12.358Z,1024.3
2022-08-09T08:41:12.355Z,1024.3
2022-08-09T08:43:13.736Z,1024.3
2022-08-09T08:44:13.737Z,1024.3
2022-08-09T08:45:13.750Z,1024.2
2022-08-09T08:46:33.593Z,1024.3
2022-08-09T08:47:13.451Z,1024.3
2022-08-09T08:48:16.829Z,1024.2
2022-08-09T08:49:12.827Z,1024.3
2022-08-09T08:50:12.361Z,1024.3
2022-08-09T08:51:12.412Z,1024.3
2022-08-09T08:52:24.414Z,1024.3
2022-08-09T08:53:16.062Z,1024.3
2022-08-09T08:54:20.482Z,1024.2
2022-08-09T08:55:15.041Z,1024.2
2022-08-09T08:56:16.829Z,1024.2
2022-08-09T08:57:12.376Z,1024.3
2022-08-09T08:58:12.372Z,1024.2
2022-08-09T08:59:19.880Z,1024.3
2022-08-09T09:00:20.515Z,1024.2
2022-08-09T09:01:21.062Z,1024.3
2022-08-09T09:02:12.820Z,1024.3
2022-08-09T09:03:20.732Z,1024.3
2022-08-09T09:04:12.374Z,1024.2
2022-08-09T09:05:12.387Z,1024.2
2022-08-09T09:06:12.373Z,1024.2
2022-08-09T09:07:12.385Z,1024.2
2022-08-09T09:08:30.667Z,1024.2
2022-08-09T09:09:21.219Z,1024.2
2022-08-09T09:10:12.380Z,1024.2
2022-08-09T09:11:13.607Z,1024.2
2022-08-09T09:12:16.757Z,1024.2
2022-08-09T09:13:12.382Z,1024.2
2022-08-09T09:14:15.729Z,1024.1
2022-08-09T09:15:12.383Z,1024.2
2022-08-09T09:16:12.387Z,1024.2
2022-08-09T09:17:13.057Z,1024.2
2022-08-09T09:18:12.393Z,1024.2
2022-08-09T09:20:12.551Z,1024.2
2022-08-09T09:21:12.384Z,1024.2
2022-08-09T09:22:12.637Z,1024.2
2022-08-09T09:23:14.125Z,1024.2
2022-08-09T09:24:21.512Z,1024.3
2022-08-09T09:26:12.790Z,1024.3
2022-08-09T09:27:22.065Z,1024.2
2022-08-09T09:28:12.393Z,1024.2
2022-08-09T09:29:17.185Z,1024.2
2022-08-09T09:30:28.707Z,1024.2
2022-08-09T09:32:15.500Z,1024.2
2022-08-09T09:33:16.571Z,1024.2
2022-08-09T09:34:14.657Z,1024.2
2022-08-09T09:35:13.019Z,1024.2
2022-08-09T09:36:20.487Z,1024.2
2022-08-09T09:37:12.952Z,1024.2
2022-08-09T09:38:27.690Z,1024.2
2022-08-09T09:39:12.422Z,1024.3
2022-08-09T09:40:13.148Z,1024.2
2022-08-09T09:41:12.397Z,1024.3
2022-08-09T09:42:12.398Z,1024.2
2022-08-09T09:43:13.564Z,1024.3
2022-08-09T09:44:15.479Z,1024.3
2022-08-09T09:45:14.526Z,1024.3
2022-08-09T09:46:43.358Z,1024.3
2022-08-09T09:47:12.402Z,1024.2
2022-08-09T09:48:12.406Z,1024.2
2022-08-09T09:49:12.413Z,1024.2
2022-08-09T09:50:14.693Z,1024.2
2022-08-09T09:51:18.839Z,1024.3
2022-08-09T09:52:16.572Z,1024.3
2022-08-09T09:53:12.408Z,1024.2
2022-08-09T09:54:20.279Z,1024.3
2022-08-09T09:55:24.252Z,1024.2
2022-08-09T09:56:30.933Z,1024.2
2022-08-09T09:58:03.317Z,1024.2
2022-08-09T09:58:19.103Z,1024.3
2022-08-09T09:59:12.479Z,1024.3
2022-08-09T10:00:12.451Z,1024.3
2022-08-09T10:01:31.332Z,1024.3
2022-08-09T10:02:12.414Z,1024.3
2022-08-09T10:03:13.886Z,1024.2
2022-08-09T10:04:12.519Z,1024.3
2022-08-09T10:05:12.420Z,1024.2
2022-08-09T10:06:12.612Z,1024.2
2022-08-09T10:07:15.280Z,1024.2
2022-08-09T10:08:28.438Z,1024.1
2022-08-09T10:09:22.556Z,1024.1
2022-08-09T10:10:12.430Z,1024.2
2022-08-09T10:11:53.867Z,1024.2
2022-08-09T10:12:28.166Z,1024.2
2022-08-09T10:13:12.459Z,1024.2
2022-08-09T10:14:12.421Z,1024.2
2022-08-09T10:15:25.355Z,1024.2
2022-08-09T10:16:56.541Z,1024.3
2022-08-09T10:17:40.147Z,1024.2
2022-08-09T10:18:12.439Z,1024.2
2022-08-09T10:19:12.427Z,1024.1
2022-08-09T10:20:15.307Z,1024.2
2022-08-09T10:21:12.427Z,1024.1
2022-08-09T10:22:12.435Z,1024.1
2022-08-09T10:24:16.093Z,1024.1
2022-08-09T10:25:14.177Z,1024.1
2022-08-09T10:26:12.432Z,1024.2
2022-08-09T10:27:17.290Z,1024.1
2022-08-09T10:28:14.017Z,1024.2
2022-08-09T10:29:37.219Z,1024.2
2022-08-09T10:31:40.172Z,1024.2
2022-08-09T10:32:38.158Z,1024.2
2022-08-09T10:34:04.432Z,1024.2
2022-08-09T10:34:32.526Z,1024.2
2022-08-09T10:35:13.270Z,1024.2
2022-08-09T10:36:12.444Z,1024.2
2022-08-09T10:37:13.807Z,1024.2
2022-08-09T10:38:33.844Z,1024.2
2022-08-09T10:40:33.492Z,1024.1
2022-08-09T10:41:12.446Z,1024.2
2022-08-09T10:42:12.445Z,1024.1
2022-08-09T10:43:13.038Z,1024.1
2022-08-09T10:44:12.571Z,1024.1
2022-08-09T10:45:16.873Z,1024.1
2022-08-09T10:46:18.260Z,1024.1
2022-08-09T10:47:20.594Z,1024.1
2022-08-09T10:48:25.994Z,1024.1
2022-08-09T10:49:12.455Z,1024.1
2022-08-09T10:50:14.780Z,1024.2
2022-08-09T10:52:13.617Z,1024.1
2022-08-09T10:53:12.513Z,1024.1
2022-08-09T10:54:13.180Z,1024
2022-08-09T10:55:12.457Z,1024.2
2022-08-09T10:56:12.456Z,1024.1
2022-08-09T10:57:12.454Z,1024.1
2022-08-09T10:58:17.125Z,1024.1
2022-08-09T10:59:12.469Z,1024.1
2022-08-09T11:03:11.583Z,1024.1
2022-08-09T11:03:15.055Z,1024
2022-08-09T11:03:49.593Z,1024
2022-08-09T11:04:29.773Z,1024
2022-08-09T11:05:12.540Z,1024
2022-08-09T11:06:12.465Z,1024.1
2022-08-09T11:07:12.526Z,1024
2022-08-09T11:08:12.493Z,1024
2022-08-09T11:09:16.097Z,1024
2022-08-09T11:10:12.470Z,1024
2022-08-09T11:11:12.466Z,1024.1
2022-08-09T11:12:12.462Z,1024.1
2022-08-09T11:13:12.468Z,1024
2022-08-09T11:14:12.502Z,1024
2022-08-09T11:15:16.742Z,1024
2022-08-09T11:16:12.472Z,1023.9
2022-08-09T11:17:12.470Z,1024
2022-08-09T11:18:12.471Z,1024
2022-08-09T11:19:12.473Z,1024
2022-08-09T11:20:20.338Z,1024
2022-08-09T11:21:12.505Z,1024
2022-08-09T11:22:21.553Z,1024
2022-08-09T11:23:12.480Z,1024
2022-08-09T11:24:12.488Z,1024
2022-08-09T11:25:12.475Z,1024
2022-08-09T11:26:12.497Z,1024
2022-08-09T11:28:14.519Z,1023.9
2022-08-09T11:29:12.488Z,1024
2022-08-09T11:30:32.402Z,1023.9
2022-08-09T11:31:12.509Z,1023.9
2022-08-09T11:32:12.485Z,1023.9
2022-08-09T11:33:12.481Z,1023.9
2022-08-09T11:34:12.480Z,1023.9
2022-08-09T11:35:12.500Z,1023.9
2022-08-09T11:36:14.748Z,1023.9
2022-08-09T11:37:18.187Z,1023.9
2022-08-09T11:38:12.486Z,1023.8
2022-08-09T11:39:13.037Z,1023.8
2022-08-09T11:40:12.488Z,1023.8
2022-08-09T11:41:13.065Z,1023.8
2022-08-09T11:42:14.898Z,1023.8
2022-08-09T11:43:12.489Z,1023.8
2022-08-09T11:44:12.490Z,1023.8
2022-08-09T11:45:12.497Z,1023.7
2022-08-09T11:46:12.505Z,1023.7
2022-08-09T11:47:14.572Z,1023.7
2022-08-09T11:48:25.355Z,1023.7
2022-08-09T11:49:16.886Z,1023.7
2022-08-09T11:50:54.378Z,1023.7
2022-08-09T11:52:37.370Z,1023.7
2022-08-09T11:53:03.321Z,1023.6
2022-08-09T11:54:13.894Z,1023.7
2022-08-09T11:55:12.498Z,1023.7
2022-08-09T11:56:12.529Z,1023.7
2022-08-09T11:57:12.510Z,1023.7
2022-08-09T11:58:12.507Z,1023.7
2022-08-09T11:59:12.503Z,1023.7
2022-08-09T12:00:16.248Z,1023.6
2022-08-09T12:01:15.452Z,1023.7
2022-08-09T12:02:17.230Z,1023.6
2022-08-09T12:03:50.442Z,1023.7
2022-08-09T12:04:20.800Z,1023.7
2022-08-09T12:05:17.830Z,1023.6
2022-08-09T12:06:12.512Z,1023.6
2022-08-09T12:07:14.187Z,1023.5
2022-08-09T12:08:21.834Z,1023.6
2022-08-09T12:09:19.695Z,1023.6
2022-08-09T12:10:32.040Z,1023.6
2022-08-09T12:11:12.859Z,1023.6
2022-08-09T12:12:19.954Z,1023.5
2022-08-09T12:14:09.053Z,1023.6
2022-08-09T12:15:12.522Z,1023.6
2022-08-09T12:16:30.779Z,1023.6
2022-08-09T12:17:27.989Z,1023.6
2022-08-09T12:18:12.524Z,1023.5
2022-08-09T12:20:12.528Z,1023.5
2022-08-09T12:21:28.540Z,1023.5
2022-08-09T12:22:12.530Z,1023.5
2022-08-09T12:23:12.532Z,1023.5
2022-08-09T12:24:12.549Z,1023.5
2022-08-09T12:25:12.525Z,1023.5
2022-08-09T12:26:12.523Z,1023.5
2022-08-09T12:29:00.307Z,1023.4
2022-08-09T12:29:14.068Z,1023.5
2022-08-09T12:29:43.669Z,1023.5
2022-08-09T12:30:36.652Z,1023.4
2022-08-09T12:31:30.687Z,1023.5
2022-08-09T12:32:12.528Z,1023.4
2022-08-09T12:33:12.538Z,1023.4
2022-08-09T12:34:12.543Z,1023.4
2022-08-09T12:36:27.564Z,1023.4
2022-08-09T12:37:23.912Z,1023.4
2022-08-09T12:38:12.579Z,1023.4
2022-08-09T12:39:12.605Z,1023.4
2022-08-09T12:40:12.544Z,1023.3
2022-08-09T12:41:12.533Z,1023.3
2022-08-09T12:42:16.275Z,1023.3
2022-08-09T12:43:12.540Z,1023.3
2022-08-09T12:44:12.961Z,1023.3
2022-08-09T12:45:33.952Z,1023.3
2022-08-09T12:46:12.550Z,1023.3
2022-08-09T12:47:12.554Z,1023.3
2022-08-09T12:48:30.991Z,1023.2
2022-08-09T12:49:12.544Z,1023.3
2022-08-09T12:50:12.552Z,1023.3
2022-08-09T12:51:12.544Z,1023.3
2022-08-09T12:52:12.557Z,1023.3
2022-08-09T12:53:19.464Z,1023.2
2022-08-09T12:54:12.550Z,1023.3
2022-08-09T12:57:12.556Z,1023.2
2022-08-09T12:58:24.265Z,1023.3
2022-08-09T12:59:14.063Z,1023.2
2022-08-09T13:00:12.546Z,1023.2
2022-08-09T13:01:12.633Z,1023.2
2022-08-09T13:02:12.554Z,1023.2
2022-08-09T13:03:24.531Z,1023.2
2022-08-09T13:04:35.926Z,1023.2
2022-08-09T13:05:12.557Z,1023.2